createdAt,value
2019-05-20T00:00:54.996Z,12.43
2019-05-20T00:03:24.089Z,13.00
2019-05-20T00:05:53.265Z,12.67
2019-05-20T00:08:23.171Z,12.03
2019-05-20T00:10:52.320Z,12.47
2019-05-20T00:13:21.641Z,12.57
2019-05-20T00:15:51.289Z,12.30
2019-05-20T00:18:20.485Z,12.17
2019-05-20T00:20:49.908Z,12.10
2019-05-20T00:23:19.079Z,12.57
2019-05-20T00:25:48.198Z,12.53
2019-05-20T00:28:17.172Z,12.07
2019-05-20T00:30:46.193Z,12.33
2019-05-20T00:33:15.377Z,11.30
2019-05-20T00:35:47.174Z,13.00
2019-05-20T00:38:16.273Z,12.17
2019-05-20T00:40:45.261Z,12.20
2019-05-20T00:43:16.078Z,12.73
2019-05-20T00:45:45.925Z,12.00
2019-05-20T00:48:15.222Z,11.67
2019-05-20T00:50:44.274Z,12.17
2019-05-20T00:53:13.579Z,11.57
2019-05-20T00:55:42.832Z,11.90
2019-05-20T00:58:12.211Z,12.07
2019-05-20T01:00:41.400Z,11.80
2019-05-20T01:03:11.053Z,11.77
2019-05-20T01:05:40.091Z,12.43
2019-05-20T01:08:09.183Z,11.47
2019-05-20T01:10:38.335Z,12.67
2019-05-20T01:13:07.436Z,11.20
2019-05-20T01:15:36.604Z,12.00
2019-05-20T01:18:05.981Z,12.17
2019-05-20T01:20:35.103Z,11.70
2019-05-20T01:23:04.337Z,11.47
2019-05-20T01:25:33.371Z,12.23
2019-05-20T01:28:02.449Z,11.40
2019-05-20T01:30:31.607Z,12.27
2019-05-20T01:33:13.391Z,11.33
2019-05-20T01:35:31.986Z,11.77
2019-05-20T01:38:01.039Z,11.87
2019-05-20T01:40:30.647Z,11.57
2019-05-20T01:42:59.898Z,11.47
2019-05-20T01:45:29.087Z,12.33
2019-05-20T01:47:58.645Z,11.70
2019-05-20T01:50:27.631Z,11.80
2019-05-20T01:52:56.844Z,10.83
2019-05-20T01:55:25.978Z,11.60
2019-05-20T01:57:55.090Z,11.80
2019-05-20T02:00:24.517Z,11.67
2019-05-20T02:02:53.523Z,12.37
2019-05-20T02:05:22.874Z,11.70
2019-05-20T02:07:52.090Z,11.63
2019-05-20T02:10:21.473Z,12.20
2019-05-20T02:12:50.644Z,12.20
2019-05-20T02:15:26.595Z,12.20
2019-05-20T02:17:55.992Z,12.13
2019-05-20T02:20:25.041Z,11.90
2019-05-20T02:22:56.891Z,11.10
2019-05-20T02:25:26.091Z,12.00
2019-05-20T02:27:55.168Z,12.00
2019-05-20T02:30:25.100Z,11.70
2019-05-20T02:32:54.388Z,11.70
2019-05-20T02:35:23.550Z,12.40
2019-05-20T02:37:52.705Z,12.23
2019-05-20T02:40:22.118Z,12.53
2019-05-20T02:42:51.168Z,12.90
2019-05-20T02:45:20.381Z,12.00
2019-05-20T02:47:49.490Z,12.33
2019-05-20T02:50:18.640Z,11.23
2019-05-20T02:52:47.811Z,12.20
2019-05-20T02:55:16.856Z,12.07
2019-05-20T02:57:46.400Z,12.47
2019-05-20T03:00:16.836Z,12.90
2019-05-20T03:02:46.135Z,13.00
2019-05-20T03:05:15.272Z,12.60
2019-05-20T03:07:44.347Z,12.97
2019-05-20T03:10:14.966Z,13.30
2019-05-20T03:12:44.129Z,13.43
2019-05-20T03:15:13.809Z,12.83
2019-05-20T03:17:43.036Z,13.23
2019-05-20T03:20:12.152Z,13.03
2019-05-20T03:22:41.752Z,12.90
2019-05-20T03:25:11.394Z,13.50
2019-05-20T03:27:40.428Z,13.57
2019-05-20T03:30:10.169Z,13.37
2019-05-20T03:32:39.676Z,13.90
2019-05-20T03:35:09.977Z,13.83
2019-05-20T03:37:39.167Z,13.77
2019-05-20T03:40:08.335Z,13.93
2019-05-20T03:42:37.442Z,14.63
2019-05-20T03:45:06.607Z,13.93
2019-05-20T03:47:35.638Z,13.80
2019-05-20T03:50:05.272Z,14.37
2019-05-20T03:52:34.428Z,13.93
2019-05-20T03:55:03.781Z,14.00
2019-05-20T03:57:32.812Z,14.40
2019-05-20T04:00:01.941Z,14.23
2019-05-20T04:02:31.371Z,14.67
2019-05-20T04:05:02.786Z,15.20
2019-05-20T04:07:31.743Z,14.03
2019-05-20T04:10:01.089Z,14.57
2019-05-20T04:12:30.357Z,14.70
2019-05-20T04:14:59.437Z,13.83
2019-05-20T04:17:28.661Z,14.70
2019-05-20T04:19:57.798Z,14.60
2019-05-20T04:22:26.823Z,14.77
2019-05-20T04:24:56.131Z,15.40
2019-05-20T04:27:26.683Z,13.80
2019-05-20T04:29:55.821Z,14.57
2019-05-20T04:32:24.918Z,15.40
2019-05-20T04:34:54.053Z,14.53
2019-05-20T04:37:23.132Z,15.10
2019-05-20T04:39:53.017Z,14.23
2019-05-20T04:42:22.012Z,14.30
2019-05-20T04:44:51.380Z,14.13
2019-05-20T04:47:20.441Z,15.23
2019-05-20T04:49:49.838Z,14.00
2019-05-20T04:52:19.094Z,14.63
2019-05-20T04:54:48.330Z,15.10
2019-05-20T04:57:17.715Z,15.90
2019-05-20T04:59:46.780Z,14.67
2019-05-20T05:02:15.961Z,14.77
2019-05-20T05:04:45.234Z,13.57
2019-05-20T05:07:15.045Z,13.37
2019-05-20T05:09:44.644Z,14.07
2019-05-20T05:12:13.821Z,13.90
2019-05-20T05:14:43.009Z,14.77
2019-05-20T05:17:12.925Z,14.80
2019-05-20T05:19:42.156Z,13.50
2019-05-20T05:22:11.371Z,13.53
2019-05-20T05:24:40.496Z,13.20
2019-05-20T05:27:09.755Z,13.10
2019-05-20T05:29:39.204Z,13.47
2019-05-20T05:32:08.327Z,12.47
2019-05-20T05:34:37.592Z,12.63
2019-05-20T05:37:06.908Z,13.87
2019-05-20T05:39:36.088Z,12.70
2019-05-20T05:42:05.392Z,13.73
2019-05-20T05:44:36.941Z,16.13
2019-05-20T05:47:06.248Z,11.90
2019-05-20T05:49:35.685Z,12.00
2019-05-20T05:52:04.779Z,18.30
2019-05-20T05:54:34.452Z,14.77
2019-05-20T05:57:03.684Z,12.70
2019-05-20T05:59:33.170Z,12.33
2019-05-20T06:02:02.312Z,14.97
2019-05-20T06:04:32.345Z,11.93
2019-05-20T06:07:01.986Z,15.27
2019-05-20T06:09:31.362Z,14.60
2019-05-20T06:12:00.789Z,11.97
2019-05-20T06:14:29.881Z,14.47
2019-05-20T06:16:59.058Z,18.80
2019-05-20T06:19:28.735Z,12.53
2019-05-20T06:21:57.959Z,10.93
2019-05-20T06:24:27.194Z,11.60
2019-05-20T06:26:56.533Z,11.57
2019-05-20T06:29:25.874Z,11.30
2019-05-20T06:31:55.063Z,12.17
2019-05-20T06:34:26.514Z,11.50
2019-05-20T06:36:58.550Z,12.07
2019-05-20T06:39:28.514Z,11.20
2019-05-20T06:41:59.032Z,9.50
2019-05-20T06:44:28.210Z,9.37
2019-05-20T06:46:57.425Z,9.27
2019-05-20T06:49:26.588Z,9.23
2019-05-20T06:51:56.249Z,9.03
2019-05-20T06:54:25.534Z,10.17
2019-05-20T06:56:54.995Z,9.00
2019-05-20T06:59:24.813Z,9.77
2019-05-20T07:01:54.274Z,9.10
2019-05-20T07:04:23.468Z,8.73
2019-05-20T07:06:52.753Z,8.20
2019-05-20T07:09:23.906Z,8.13
2019-05-20T07:11:53.350Z,8.43
2019-05-20T07:14:22.800Z,9.70
2019-05-20T07:16:52.004Z,7.83
2019-05-20T07:19:21.482Z,8.50
2019-05-20T07:21:52.408Z,8.87
2019-05-20T07:24:22.923Z,8.13
2019-05-20T07:26:52.120Z,8.50
2019-05-20T07:29:21.449Z,8.57
2019-05-20T07:31:51.997Z,7.57
2019-05-20T07:34:23.176Z,9.17
2019-05-20T07:37:03.280Z,8.00
2019-05-20T07:39:24.338Z,9.20
2019-05-20T07:41:53.546Z,8.10
2019-05-20T07:44:22.868Z,7.47
2019-05-20T07:46:52.473Z,8.13
2019-05-20T07:49:25.463Z,6.53
2019-05-20T07:51:58.658Z,7.07
2019-05-20T07:54:40.355Z,8.60
2019-05-20T07:57:24.011Z,8.50
2019-05-20T08:00:19.615Z,6.90
2019-05-20T08:02:57.558Z,7.93
2019-05-20T08:05:31.014Z,6.70
2019-05-20T08:08:09.334Z,8.00
2019-05-20T08:10:51.019Z,6.60
2019-05-20T08:13:24.988Z,6.03
2019-05-20T08:15:55.795Z,6.53
2019-05-20T08:18:32.249Z,6.50
2019-05-20T08:21:01.739Z,6.30
2019-05-20T08:23:31.358Z,6.97
2019-05-20T08:26:00.682Z,6.00
2019-05-20T08:28:30.430Z,6.50
2019-05-20T08:30:59.967Z,5.70
2019-05-20T08:33:29.604Z,5.53
2019-05-20T08:35:58.792Z,5.33
2019-05-20T08:38:28.008Z,4.87
2019-05-20T08:40:57.283Z,5.97
2019-05-20T08:43:26.633Z,5.27
2019-05-20T08:45:55.852Z,5.63
2019-05-20T08:48:25.410Z,11.20
2019-05-20T08:50:54.501Z,6.73
2019-05-20T08:53:23.598Z,4.93
2019-05-20T08:55:53.023Z,7.10
2019-05-20T08:58:22.061Z,14.73
2019-05-20T09:00:51.273Z,7.70
2019-05-20T09:03:20.532Z,6.17
2019-05-20T09:05:49.793Z,7.63
2019-05-20T09:08:19.347Z,4.60
2019-05-20T09:10:48.621Z,5.90
2019-05-20T09:13:17.774Z,5.13
2019-05-20T09:15:47.170Z,5.07
2019-05-20T09:18:16.508Z,5.63
2019-05-20T09:20:45.984Z,5.50
2019-05-20T09:23:15.063Z,5.60
2019-05-20T09:25:44.296Z,5.20
2019-05-20T09:28:13.491Z,4.90
2019-05-20T09:30:43.611Z,5.10
2019-05-20T09:33:12.979Z,4.40
2019-05-20T09:35:42.845Z,4.57
2019-05-20T09:38:20.069Z,3.83
2019-05-20T09:40:46.349Z,4.00
2019-05-20T09:43:15.930Z,4.90
2019-05-20T09:45:45.177Z,4.70
2019-05-20T09:48:14.594Z,5.60
2019-05-20T09:50:43.829Z,4.50
2019-05-20T09:53:13.064Z,6.33
2019-05-20T09:55:42.400Z,5.07
2019-05-20T09:58:11.639Z,4.73
2019-05-20T10:00:40.969Z,6.40
2019-05-20T10:03:10.216Z,4.80
2019-05-20T10:05:39.454Z,6.03
2019-05-20T10:08:16.288Z,6.30
2019-05-20T10:10:45.487Z,7.03
2019-05-20T10:13:15.080Z,7.33
2019-05-20T10:16:19.811Z,5.30
2019-05-20T10:19:08.551Z,5.33
2019-05-20T10:21:37.872Z,5.20
2019-05-20T10:24:07.612Z,6.57
2019-05-20T10:26:36.792Z,4.80
2019-05-20T10:29:06.235Z,4.13
2019-05-20T10:31:35.438Z,4.60
2019-05-20T10:34:04.861Z,4.83
2019-05-20T10:36:34.108Z,5.63
2019-05-20T10:39:07.676Z,6.07
2019-05-20T10:41:35.756Z,4.67
2019-05-20T10:44:05.035Z,8.27
2019-05-20T10:46:34.216Z,5.73
2019-05-20T10:49:03.621Z,5.47
2019-05-20T10:51:38.408Z,4.63
2019-05-20T10:54:10.255Z,5.03
2019-05-20T10:56:39.573Z,5.47
2019-05-20T10:59:11.868Z,4.63
2019-05-20T11:01:39.698Z,7.70
2019-05-20T11:04:08.899Z,5.43
2019-05-20T11:06:38.064Z,5.87
2019-05-20T11:09:14.051Z,6.20
2019-05-20T11:11:39.512Z,5.70
2019-05-20T11:14:09.532Z,5.00
2019-05-20T11:16:38.841Z,5.23
2019-05-20T11:19:08.304Z,4.93
2019-05-20T11:21:37.490Z,5.37
2019-05-20T11:24:06.780Z,5.63
2019-05-20T11:26:36.198Z,5.33
2019-05-20T11:29:06.738Z,5.90
2019-05-20T11:31:35.912Z,10.60
2019-05-20T11:34:05.419Z,4.87
2019-05-20T11:36:34.681Z,5.77
2019-05-20T11:39:07.369Z,5.43
2019-05-20T11:41:52.697Z,7.30
2019-05-20T11:44:07.933Z,6.40
2019-05-20T11:46:37.250Z,8.03
2019-05-20T11:49:06.437Z,5.10
2019-05-20T11:51:35.635Z,5.97
2019-05-20T11:54:05.083Z,5.10
2019-05-20T11:56:34.305Z,5.17
2019-05-20T11:59:03.405Z,5.07
2019-05-20T12:01:32.489Z,5.13
2019-05-20T12:04:01.621Z,5.90
2019-05-20T12:06:31.032Z,5.70
2019-05-20T12:09:00.282Z,6.97
2019-05-20T12:11:29.696Z,5.50
2019-05-20T12:13:59.509Z,7.00
2019-05-20T12:16:28.558Z,6.00
2019-05-20T12:18:57.697Z,6.57
2019-05-20T12:21:26.788Z,6.60
2019-05-20T12:24:00.202Z,5.57
2019-05-20T12:26:29.298Z,6.43
2019-05-20T12:28:58.552Z,6.33
2019-05-20T12:31:27.714Z,5.73
2019-05-20T12:33:56.826Z,7.67
2019-05-20T12:36:25.974Z,5.70
2019-05-20T12:38:55.013Z,5.27
2019-05-20T12:41:24.111Z,6.33
2019-05-20T12:44:10.300Z,6.33
2019-05-20T12:46:24.163Z,6.43
2019-05-20T12:48:53.396Z,5.77
2019-05-20T12:51:23.043Z,5.90
2019-05-20T12:53:52.097Z,5.93
2019-05-20T12:56:20.826Z,5.93
2019-05-20T12:58:49.460Z,6.57
2019-05-20T13:01:19.014Z,8.03
2019-05-20T13:03:48.357Z,8.63
2019-05-20T13:06:17.965Z,6.47
2019-05-20T13:08:49.998Z,7.13
2019-05-20T13:11:19.688Z,6.40
2019-05-20T13:13:48.834Z,6.37
2019-05-20T13:16:18.070Z,6.13
2019-05-20T13:18:55.309Z,6.37
2019-05-20T13:21:18.197Z,5.63
2019-05-20T13:23:49.017Z,6.13
2019-05-20T13:26:18.558Z,7.00
2019-05-20T13:28:47.695Z,8.77
2019-05-20T13:31:16.803Z,9.57
2019-05-20T13:33:45.881Z,6.83
2019-05-20T13:36:15.456Z,6.43
2019-05-20T13:38:44.483Z,7.10
2019-05-20T13:41:13.633Z,7.90
2019-05-20T13:43:42.754Z,10.03
2019-05-20T13:46:12.034Z,10.13
2019-05-20T13:48:41.138Z,7.07
2019-05-20T13:51:10.419Z,7.00
2019-05-20T13:53:39.736Z,6.83
2019-05-20T13:56:08.742Z,7.07
2019-05-20T13:58:37.859Z,7.13
2019-05-20T14:01:07.012Z,7.00
2019-05-20T14:03:36.655Z,6.50
2019-05-20T14:06:05.933Z,6.53
2019-05-20T14:08:35.181Z,7.67
2019-05-20T14:11:05.153Z,9.30
2019-05-20T14:13:35.089Z,7.90
2019-05-20T14:16:04.566Z,7.67
2019-05-20T14:18:33.934Z,8.33
2019-05-20T14:21:03.368Z,9.37
2019-05-20T14:23:32.699Z,9.03
2019-05-20T14:26:01.816Z,7.50
2019-05-20T14:28:31.133Z,9.60
2019-05-20T14:31:00.245Z,8.43
2019-05-20T14:33:29.758Z,9.03
2019-05-20T14:35:58.907Z,10.20
2019-05-20T14:38:28.104Z,9.73
2019-05-20T14:40:57.550Z,10.23
2019-05-20T14:43:26.893Z,10.90
2019-05-20T14:45:56.073Z,10.73
2019-05-20T14:48:25.444Z,10.53
2019-05-20T14:50:54.670Z,11.07
2019-05-20T14:53:23.939Z,11.50
2019-05-20T14:55:53.191Z,11.70
2019-05-20T14:58:22.573Z,12.60
2019-05-20T15:00:52.162Z,12.20
2019-05-20T15:03:21.696Z,12.90
2019-05-20T15:05:51.098Z,13.50
2019-05-20T15:08:20.793Z,13.03
2019-05-20T15:10:50.171Z,12.17
2019-05-20T15:13:19.300Z,13.37
2019-05-20T15:15:48.782Z,12.90
2019-05-20T15:18:17.881Z,12.67
2019-05-20T15:20:47.060Z,10.07
2019-05-20T15:23:16.330Z,7.47
2019-05-20T15:25:45.385Z,6.60
2019-05-20T15:28:14.740Z,6.80
2019-05-20T15:30:43.793Z,6.80
2019-05-20T15:33:12.955Z,7.10
2019-05-20T15:35:42.320Z,6.40
2019-05-20T15:38:11.658Z,6.23
2019-05-20T15:40:40.856Z,7.23
2019-05-20T15:43:10.085Z,5.13
2019-05-20T15:45:39.291Z,9.57
2019-05-20T15:48:08.380Z,15.17
2019-05-20T15:50:37.545Z,12.67
2019-05-20T15:53:10.985Z,15.63
2019-05-20T15:55:37.785Z,16.83
2019-05-20T15:58:07.030Z,20.00
2019-05-20T16:00:36.417Z,19.57
2019-05-20T16:03:05.885Z,22.30
2019-05-20T16:05:35.376Z,20.43
2019-05-20T16:08:04.709Z,22.17
2019-05-20T16:10:34.312Z,21.53
2019-05-20T16:13:04.444Z,22.33
2019-05-20T16:15:33.788Z,19.73
2019-05-20T16:18:03.482Z,27.00
2019-05-20T16:20:38.521Z,26.80
2019-05-20T16:23:07.842Z,21.80
2019-05-20T16:25:37.105Z,23.70
2019-05-20T16:28:06.711Z,20.30
2019-05-20T16:30:36.169Z,21.07
2019-05-20T16:33:05.833Z,25.37
2019-05-20T16:35:35.474Z,24.23
2019-05-20T16:38:04.983Z,26.10
2019-05-20T16:40:34.174Z,22.30
2019-05-20T16:43:03.350Z,21.63
2019-05-20T16:45:32.474Z,21.73
2019-05-20T16:48:01.603Z,19.87
2019-05-20T16:50:30.893Z,21.63
2019-05-20T16:53:00.068Z,21.87
2019-05-20T16:55:29.428Z,21.57
2019-05-20T16:57:58.607Z,22.03
2019-05-20T17:00:31.846Z,21.37
2019-05-20T17:02:58.632Z,21.23
2019-05-20T17:05:27.673Z,20.83
2019-05-20T17:07:57.033Z,21.43
2019-05-20T17:10:26.244Z,20.53
2019-05-20T17:12:55.532Z,20.60
2019-05-20T17:15:24.720Z,21.20
2019-05-20T17:17:54.059Z,22.00
2019-05-20T17:20:23.392Z,21.97
2019-05-20T17:22:52.587Z,21.70
2019-05-20T17:25:21.828Z,21.23
2019-05-20T17:27:50.980Z,19.67
2019-05-20T17:30:20.299Z,19.30
2019-05-20T17:32:49.482Z,18.07
2019-05-20T17:35:18.743Z,16.43
2019-05-20T17:37:47.953Z,16.30
2019-05-20T17:40:17.779Z,15.60
2019-05-20T17:42:46.940Z,14.83
2019-05-20T17:45:17.204Z,15.97
2019-05-20T17:47:46.417Z,15.23
2019-05-20T17:50:16.519Z,14.77
2019-05-20T17:52:45.646Z,15.23
2019-05-20T17:55:15.040Z,15.17
2019-05-20T17:57:44.289Z,16.50
2019-05-20T18:00:18.304Z,15.60
2019-05-20T18:02:47.558Z,15.93
2019-05-20T18:05:17.182Z,15.63
2019-05-20T18:07:46.410Z,16.20
2019-05-20T18:10:16.866Z,16.63
2019-05-20T18:12:45.996Z,16.97
2019-05-20T18:15:15.927Z,18.60
2019-05-20T18:17:45.216Z,18.10
2019-05-20T18:20:14.838Z,17.80
2019-05-20T18:22:44.180Z,19.23
2019-05-20T18:25:13.802Z,21.40
2019-05-20T18:27:43.733Z,22.77
2019-05-20T18:30:13.395Z,19.70
2019-05-20T18:32:42.627Z,22.07
2019-05-20T18:35:12.499Z,23.00
2019-05-20T18:37:41.729Z,23.83
2019-05-20T18:40:14.345Z,23.30
2019-05-20T18:42:43.356Z,23.53
2019-05-20T18:45:13.119Z,25.17
2019-05-20T18:47:46.854Z,25.50
2019-05-20T18:50:16.167Z,27.97
2019-05-20T18:52:52.328Z,28.63
2019-05-20T18:55:21.596Z,25.97
2019-05-20T18:57:50.947Z,26.67
2019-05-20T19:00:20.387Z,28.47
2019-05-20T19:02:49.932Z,28.77
2019-05-20T19:05:19.221Z,27.00
2019-05-20T19:07:48.993Z,32.87
2019-05-20T19:10:18.985Z,26.20
2019-05-20T19:12:48.369Z,31.00
2019-05-20T19:15:17.900Z,30.47
2019-05-20T19:17:47.076Z,29.47
2019-05-20T19:20:16.378Z,27.13
2019-05-20T19:22:45.631Z,26.77
2019-05-20T19:25:14.854Z,24.67
2019-05-20T19:27:44.168Z,27.97
2019-05-20T19:30:14.124Z,25.00
2019-05-20T19:32:43.376Z,26.17
2019-05-20T19:35:13.023Z,28.57
2019-05-20T19:37:43.695Z,25.27
2019-05-20T19:40:13.047Z,25.37
2019-05-20T19:42:42.601Z,27.60
2019-05-20T19:45:12.237Z,31.03
2019-05-20T19:47:41.776Z,24.80
2019-05-20T19:50:11.512Z,27.13
2019-05-20T19:52:40.915Z,22.67
2019-05-20T19:55:10.438Z,21.07
2019-05-20T19:57:39.721Z,18.83
2019-05-20T20:00:09.788Z,21.10
2019-05-20T20:02:38.994Z,17.20
2019-05-20T20:05:09.380Z,22.47
2019-05-20T20:07:38.857Z,24.40
2019-05-20T20:10:08.170Z,31.33
2019-05-20T20:12:37.613Z,28.87
2019-05-20T20:15:07.117Z,28.00
2019-05-20T20:17:36.893Z,39.53
2019-05-20T20:20:06.170Z,28.93
2019-05-20T20:22:35.555Z,27.53
2019-05-20T20:25:06.934Z,34.27
2019-05-20T20:27:36.511Z,43.63
2019-05-20T20:30:05.996Z,30.27
2019-05-20T20:32:38.301Z,24.83
2019-05-20T20:35:06.865Z,24.37
2019-05-20T20:37:36.252Z,23.73
2019-05-20T20:40:05.772Z,20.77
2019-05-20T20:42:35.066Z,22.43
2019-05-20T20:45:04.922Z,25.93
2019-05-20T20:47:41.869Z,23.87
2019-05-20T20:50:06.125Z,20.23
2019-05-20T20:52:35.354Z,20.10
2019-05-20T20:55:05.164Z,20.27
2019-05-20T20:57:34.490Z,18.77
2019-05-20T21:00:03.879Z,17.13
2019-05-20T21:02:33.107Z,16.50
2019-05-20T21:05:02.541Z,16.77
2019-05-20T21:07:31.807Z,16.27
2019-05-20T21:10:01.061Z,17.37
2019-05-20T21:12:30.360Z,19.37
2019-05-20T21:14:59.504Z,18.63
2019-05-20T21:17:28.829Z,20.70
2019-05-20T21:19:58.177Z,17.53
2019-05-20T21:22:27.509Z,16.47
2019-05-20T21:24:56.715Z,17.47
2019-05-20T21:27:26.026Z,17.47
2019-05-20T21:29:55.359Z,17.77
2019-05-20T21:32:24.713Z,15.10
2019-05-20T21:34:53.831Z,14.17
2019-05-20T21:37:22.884Z,14.73
2019-05-20T21:39:52.146Z,14.70
2019-05-20T21:42:21.585Z,14.90
2019-05-20T21:44:50.736Z,13.83
2019-05-20T21:47:20.916Z,13.83
2019-05-20T21:49:50.031Z,14.10
2019-05-20T21:52:19.242Z,13.90
2019-05-20T21:54:48.481Z,14.30
2019-05-20T21:57:17.633Z,14.90
2019-05-20T21:59:46.818Z,15.13
2019-05-20T22:02:16.082Z,14.97
2019-05-20T22:04:45.355Z,14.37
2019-05-20T22:07:15.275Z,15.20
2019-05-20T22:09:45.157Z,14.83
2019-05-20T22:12:14.330Z,14.47
2019-05-20T22:14:43.586Z,14.77
2019-05-20T22:17:12.822Z,15.43
2019-05-20T22:19:41.870Z,14.57
2019-05-20T22:22:36.493Z,14.53
2019-05-20T22:25:06.189Z,15.23
2019-05-20T22:27:35.266Z,15.97
2019-05-20T22:30:05.193Z,14.63
2019-05-20T22:32:35.156Z,14.77
2019-05-20T22:35:04.816Z,15.67
2019-05-20T22:37:34.190Z,16.53
2019-05-20T22:40:03.350Z,15.20
2019-05-20T22:42:32.776Z,16.10
2019-05-20T22:45:02.056Z,15.60
2019-05-20T22:47:33.134Z,15.20
2019-05-20T22:50:02.358Z,15.37
2019-05-20T22:52:31.889Z,15.23
2019-05-20T22:55:01.138Z,15.37
2019-05-20T22:57:30.314Z,16.00
2019-05-20T22:59:59.391Z,15.93
2019-05-20T23:02:28.705Z,15.33
2019-05-20T23:04:59.137Z,16.33
2019-05-20T23:07:28.290Z,15.47
2019-05-20T23:09:57.491Z,16.10
2019-05-20T23:12:26.656Z,17.07
2019-05-20T23:14:55.760Z,16.50
2019-05-20T23:17:25.679Z,15.97
2019-05-20T23:19:54.765Z,15.17
2019-05-20T23:22:24.041Z,15.03
2019-05-20T23:24:53.230Z,15.03
2019-05-20T23:27:22.460Z,16.13
2019-05-20T23:29:51.717Z,16.03
2019-05-20T23:32:21.145Z,15.53
2019-05-20T23:34:51.299Z,15.37
2019-05-20T23:37:20.281Z,16.50
2019-05-20T23:39:49.401Z,15.93
2019-05-20T23:42:18.409Z,16.23
2019-05-20T23:44:47.501Z,15.60
2019-05-20T23:47:16.615Z,15.43
2019-05-20T23:49:45.725Z,16.03
2019-05-20T23:52:14.937Z,16.00
2019-05-20T23:54:43.977Z,15.53
2019-05-20T23:57:13.584Z,16.20
2019-05-20T23:59:42.753Z,16.07
